sensor_id;sensor_type;location;lat;lon;timestamp;pressure;altitude;pressure_sealevel;temperature;humidity
54872;BME280;43914;57.680;11.982;2024-02-16T00:01:41;100142.20;;;5.02;100.00
54872;BME280;43914;57.680;11.982;2024-02-16T00:04:07;100138.73;;;5.05;100.00
54872;BME280;43914;57.680;11.982;2024-02-16T00:06:32;100130.52;;;5.07;100.00
54872;BME280;43914;57.680;11.982;2024-02-16T00:08:59;100130.76;;;5.10;100.00
54872;BME280;43914;57.680;11.982;2024-02-16T00:11:24;100132.19;;;5.13;100.00
54872;BME280;43914;57.680;11.982;2024-02-16T00:13:50;100122.61;;;5.14;100.00
54872;BME280;43914;57.680;11.982;2024-02-16T00:16:17;100123.85;;;5.16;100.00
54872;BME280;43914;57.680;11.982;2024-02-16T00:18:43;100118.53;;;5.18;100.00
54872;BME280;43914;57.680;11.982;2024-02-16T00:21:08;100118.47;;;5.20;100.00
54872;BME280;43914;57.680;11.982;2024-02-16T00:23:34;100112.17;;;5.21;100.00
54872;BME280;43914;57.680;11.982;2024-02-16T00:26:01;100108.71;;;5.24;100.00
54872;BME280;43914;57.680;11.982;2024-02-16T00:28:27;100101.38;;;5.26;100.00
54872;BME280;43914;57.680;11.982;2024-02-16T00:30:53;100102.73;;;5.28;100.00
54872;BME280;43914;57.680;11.982;2024-02-16T00:33:18;100100.52;;;5.30;100.00
54872;BME280;43914;57.680;11.982;2024-02-16T00:35:44;100101.15;;;5.33;100.00
54872;BME280;43914;57.680;11.982;2024-02-16T00:38:10;100103.66;;;5.34;100.00
54872;BME280;43914;57.680;11.982;2024-02-16T00:40:35;100100.39;;;5.37;100.00
54872;BME280;43914;57.680;11.982;2024-02-16T00:43:03;100099.02;;;5.38;100.00
54872;BME280;43914;57.680;11.982;2024-02-16T00:45:28;100104.81;;;5.40;100.00
54872;BME280;43914;57.680;11.982;2024-02-16T00:47:54;100101.80;;;5.36;100.00
54872;BME280;43914;57.680;11.982;2024-02-16T00:50:19;100108.48;;;5.44;100.00
54872;BME280;43914;57.680;11.982;2024-02-16T00:52:45;100109.10;;;5.46;100.00
54872;BME280;43914;57.680;11.982;2024-02-16T00:55:10;100116.91;;;5.50;100.00
54872;BME280;43914;57.680;11.982;2024-02-16T00:57:36;100121.89;;;5.53;100.00
54872;BME280;43914;57.680;11.982;2024-02-16T01:00:02;100118.38;;;5.56;100.00
54872;BME280;43914;57.680;11.982;2024-02-16T01:02:28;100114.72;;;5.59;100.00
54872;BME280;43914;57.680;11.982;2024-02-16T01:04:54;100111.25;;;5.61;100.00
54872;BME280;43914;57.680;11.982;2024-02-16T01:07:23;100112.89;;;5.64;100.00
54872;BME280;43914;57.680;11.982;2024-02-16T01:09:48;100110.23;;;5.67;100.00
54872;BME280;43914;57.680;11.982;2024-02-16T01:12:14;100100.53;;;5.70;100.00
54872;BME280;43914;57.680;11.982;2024-02-16T01:14:39;100107.13;;;5.73;100.00
54872;BME280;43914;57.680;11.982;2024-02-16T01:17:05;100097.73;;;5.76;100.00
54872;BME280;43914;57.680;11.982;2024-02-16T01:19:30;100092.13;;;5.78;100.00
54872;BME280;43914;57.680;11.982;2024-02-16T01:21:56;100087.13;;;5.82;100.00
54872;BME280;43914;57.680;11.982;2024-02-16T01:24:23;100088.05;;;5.87;100.00
54872;BME280;43914;57.680;11.982;2024-02-16T01:26:49;100086.08;;;5.90;100.00
54872;BME280;43914;57.680;11.982;2024-02-16T01:29:14;100086.94;;;5.93;100.00
54872;BME280;43914;57.680;11.982;2024-02-16T01:31:40;100080.13;;;5.95;100.00
54872;BME280;43914;57.680;11.982;2024-02-16T01:34:05;100076.57;;;5.96;100.00
54872;BME280;43914;57.680;11.982;2024-02-16T01:36:31;100080.92;;;5.99;100.00
54872;BME280;43914;57.680;11.982;2024-02-16T01:38:56;100075.51;;;6.02;100.00
54872;BME280;43914;57.680;11.982;2024-02-16T01:41:21;100070.70;;;6.05;100.00
54872;BME280;43914;57.680;11.982;2024-02-16T01:43:47;100064.56;;;6.10;100.00
54872;BME280;43914;57.680;11.982;2024-02-16T01:46:12;100064.56;;;6.16;100.00
54872;BME280;43914;57.680;11.982;2024-02-16T01:48:38;100057.73;;;6.22;100.00
54872;BME280;43914;57.680;11.982;2024-02-16T01:51:08;100054.59;;;6.27;100.00
54872;BME280;43914;57.680;11.982;2024-02-16T01:53:35;100052.33;;;6.33;100.00
54872;BME280;43914;57.680;11.982;2024-02-16T01:56:02;100049.30;;;6.40;100.00
54872;BME280;43914;57.680;11.982;2024-02-16T01:58:28;100050.73;;;6.46;100.00
54872;BME280;43914;57.680;11.982;2024-02-16T02:00:53;100044.08;;;6.53;100.00
54872;BME280;43914;57.680;11.982;2024-02-16T02:03:20;100041.06;;;6.62;100.00
54872;BME280;43914;57.680;11.982;2024-02-16T02:05:46;100039.69;;;6.70;100.00
54872;BME280;43914;57.680;11.982;2024-02-16T02:08:13;100037.81;;;6.77;100.00
54872;BME280;43914;57.680;11.982;2024-02-16T02:10:42;100041.89;;;6.85;100.00
54872;BME280;43914;57.680;11.982;2024-02-16T02:13:08;100040.04;;;6.93;100.00
54872;BME280;43914;57.680;11.982;2024-02-16T02:15:33;100043.92;;;7.00;100.00
54872;BME280;43914;57.680;11.982;2024-02-16T02:17:59;100044.40;;;7.05;100.00
54872;BME280;43914;57.680;11.982;2024-02-16T02:20:25;100041.27;;;7.12;100.00
54872;BME280;43914;57.680;11.982;2024-02-16T02:22:51;100039.88;;;7.15;100.00
54872;BME280;43914;57.680;11.982;2024-02-16T02:25:16;100040.15;;;7.21;100.00
54872;BME280;43914;57.680;11.982;2024-02-16T02:27:41;100033.20;;;7.27;100.00
54872;BME280;43914;57.680;11.982;2024-02-16T02:30:08;100036.71;;;7.30;100.00
54872;BME280;43914;57.680;11.982;2024-02-16T02:32:34;100037.95;;;7.31;100.00
54872;BME280;43914;57.680;11.982;2024-02-16T02:35:02;100033.99;;;7.32;100.00
54872;BME280;43914;57.680;11.982;2024-02-16T02:37:29;100034.77;;;7.33;100.00
54872;BME280;43914;57.680;11.982;2024-02-16T02:39:55;100032.34;;;7.34;100.00
54872;BME280;43914;57.680;11.982;2024-02-16T02:42:20;100033.67;;;7.34;100.00
54872;BME280;43914;57.680;11.982;2024-02-16T02:44:45;100030.82;;;7.36;100.00
54872;BME280;43914;57.680;11.982;2024-02-16T02:47:16;100029.84;;;7.37;100.00
54872;BME280;43914;57.680;11.982;2024-02-16T02:49:42;100030.98;;;7.38;100.00
54872;BME280;43914;57.680;11.982;2024-02-16T02:52:08;100030.07;;;7.38;100.00
54872;BME280;43914;57.680;11.982;2024-02-16T02:54:34;100032.75;;;7.40;100.00
54872;BME280;43914;57.680;11.982;2024-02-16T02:57:01;100016.98;;;7.40;100.00
54872;BME280;43914;57.680;11.982;2024-02-16T02:59:27;100007.08;;;7.41;100.00
54872;BME280;43914;57.680;11.982;2024-02-16T03:01:52;100006.75;;;7.41;100.00
54872;BME280;43914;57.680;11.982;2024-02-16T03:04:18;100011.23;;;7.42;100.00
54872;BME280;43914;57.680;11.982;2024-02-16T03:06:43;100014.71;;;7.43;100.00
54872;BME280;43914;57.680;11.982;2024-02-16T03:09:11;100012.23;;;7.44;100.00
54872;BME280;43914;57.680;11.982;2024-02-16T03:11:37;100016.47;;;7.44;100.00
54872;BME280;43914;57.680;11.982;2024-02-16T03:14:03;100004.66;;;7.45;100.00
54872;BME280;43914;57.680;11.982;2024-02-16T03:16:30;100002.40;;;7.44;100.00
54872;BME280;43914;57.680;11.982;2024-02-16T03:18:56;100000.30;;;7.44;100.00
54872;BME280;43914;57.680;11.982;2024-02-16T03:21:21;100000.34;;;7.45;100.00
54872;BME280;43914;57.680;11.982;2024-02-16T03:23:47;99998.89;;;7.47;100.00
54872;BME280;43914;57.680;11.982;2024-02-16T03:26:17;99999.67;;;7.49;100.00
54872;BME280;43914;57.680;11.982;2024-02-16T03:28:47;99989.09;;;7.50;100.00
54872;BME280;43914;57.680;11.982;2024-02-16T03:31:23;99983.75;;;7.51;100.00
54872;BME280;43914;57.680;11.982;2024-02-16T03:33:50;99984.98;;;7.55;100.00
54872;BME280;43914;57.680;11.982;2024-02-16T03:36:19;99986.70;;;7.57;100.00
54872;BME280;43914;57.680;11.982;2024-02-16T03:38:46;99981.34;;;7.58;100.00
54872;BME280;43914;57.680;11.982;2024-02-16T03:41:13;99984.16;;;7.60;100.00
54872;BME280;43914;57.680;11.982;2024-02-16T03:43:40;99976.31;;;7.61;100.00
54872;BME280;43914;57.680;11.982;2024-02-16T03:46:05;99981.12;;;7.63;100.00
54872;BME280;43914;57.680;11.982;2024-02-16T03:48:31;99971.81;;;7.63;100.00
54872;BME280;43914;57.680;11.982;2024-02-16T03:50:56;99971.88;;;7.64;100.00
54872;BME280;43914;57.680;11.982;2024-02-16T03:53:22;99971.27;;;7.63;100.00
54872;BME280;43914;57.680;11.982;2024-02-16T03:55:48;99974.52;;;7.64;100.00
54872;BME280;43914;57.680;11.982;2024-02-16T03:58:14;99971.17;;;7.66;100.00
54872;BME280;43914;57.680;11.982;2024-02-16T04:00:39;99955.12;;;7.60;100.00
54872;BME280;43914;57.680;11.982;2024-02-16T04:03:05;99964.79;;;7.66;100.00
54872;BME280;43914;57.680;11.982;2024-02-16T04:05:30;99965.89;;;7.65;100.00
54872;BME280;43914;57.680;11.982;2024-02-16T04:07:58;99963.41;;;7.65;100.00
54872;BME280;43914;57.680;11.982;2024-02-16T04:10:27;99963.19;;;7.64;100.00
54872;BME280;43914;57.680;11.982;2024-02-16T04:12:55;99960.02;;;7.63;100.00
54872;BME280;43914;57.680;11.982;2024-02-16T04:15:21;99955.99;;;7.64;100.00
54872;BME280;43914;57.680;11.982;2024-02-16T04:17:47;99958.96;;;7.65;100.00
54872;BME280;43914;57.680;11.982;2024-02-16T04:20:14;99960.95;;;7.65;100.00
54872;BME280;43914;57.680;11.982;2024-02-16T04:22:41;99958.17;;;7.64;100.00
54872;BME280;43914;57.680;11.982;2024-02-16T04:25:06;99955.74;;;7.62;100.00
54872;BME280;43914;57.680;11.982;2024-02-16T04:27:36;99957.14;;;7.61;100.00
54872;BME280;43914;57.680;11.982;2024-02-16T04:30:03;99955.60;;;7.59;100.00
54872;BME280;43914;57.680;11.982;2024-02-16T04:32:28;99952.33;;;7.58;100.00
54872;BME280;43914;57.680;11.982;2024-02-16T04:34:54;99952.60;;;7.57;100.00
54872;BME280;43914;57.680;11.982;2024-02-16T04:37:22;99948.82;;;7.55;100.00
54872;BME280;43914;57.680;11.982;2024-02-16T04:39:49;99943.80;;;7.53;100.00
54872;BME280;43914;57.680;11.982;2024-02-16T04:42:16;99940.67;;;7.51;100.00
54872;BME280;43914;57.680;11.982;2024-02-16T04:44:42;99937.41;;;7.50;100.00
54872;BME280;43914;57.680;11.982;2024-02-16T04:47:08;99935.05;;;7.49;100.00
54872;BME280;43914;57.680;11.982;2024-02-16T04:49:34;99934.44;;;7.46;100.00
54872;BME280;43914;57.680;11.982;2024-02-16T04:52:00;99933.95;;;7.44;100.00
54872;BME280;43914;57.680;11.982;2024-02-16T04:54:26;99937.45;;;7.39;100.00
54872;BME280;43914;57.680;11.982;2024-02-16T04:56:51;99936.50;;;7.35;100.00
54872;BME280;43914;57.680;11.982;2024-02-16T04:59:17;99933.73;;;7.30;100.00
54872;BME280;43914;57.680;11.982;2024-02-16T05:01:46;99930.92;;;7.25;100.00
54872;BME280;43914;57.680;11.982;2024-02-16T05:04:12;99925.68;;;7.21;100.00
54872;BME280;43914;57.680;11.982;2024-02-16T05:06:42;99923.58;;;7.17;100.00
54872;BME280;43914;57.680;11.982;2024-02-16T05:09:07;99926.44;;;7.14;100.00
54872;BME280;43914;57.680;11.982;2024-02-16T05:11:33;99922.98;;;7.12;100.00
54872;BME280;43914;57.680;11.982;2024-02-16T05:13:59;99918.30;;;7.09;100.00
54872;BME280;43914;57.680;11.982;2024-02-16T05:16:25;99917.23;;;7.06;100.00
54872;BME280;43914;57.680;11.982;2024-02-16T05:18:51;99914.33;;;7.04;100.00
54872;BME280;43914;57.680;11.982;2024-02-16T05:21:17;99907.81;;;7.01;100.00
54872;BME280;43914;57.680;11.982;2024-02-16T05:23:42;99910.02;;;6.99;100.00
54872;BME280;43914;57.680;11.982;2024-02-16T05:26:08;99903.23;;;6.97;100.00
54872;BME280;43914;57.680;11.982;2024-02-16T05:28:33;99903.77;;;6.93;100.00
54872;BME280;43914;57.680;11.982;2024-02-16T05:31:13;99907.95;;;6.93;100.00
54872;BME280;43914;57.680;11.982;2024-02-16T05:33:40;99905.36;;;6.91;100.00
54872;BME280;43914;57.680;11.982;2024-02-16T05:36:06;99905.74;;;6.89;100.00
54872;BME280;43914;57.680;11.982;2024-02-16T05:38:32;99908.43;;;6.87;100.00
54872;BME280;43914;57.680;11.982;2024-02-16T05:41:00;99910.14;;;6.86;100.00
54872;BME280;43914;57.680;11.982;2024-02-16T05:43:25;99901.39;;;6.86;100.00
54872;BME280;43914;57.680;11.982;2024-02-16T05:45:52;99901.32;;;6.87;100.00
54872;BME280;43914;57.680;11.982;2024-02-16T05:48:18;99888.23;;;6.86;100.00
54872;BME280;43914;57.680;11.982;2024-02-16T05:50:45;99883.25;;;6.86;100.00
54872;BME280;43914;57.680;11.982;2024-02-16T05:53:10;99875.88;;;6.87;100.00
54872;BME280;43914;57.680;11.982;2024-02-16T05:55:36;99877.48;;;6.87;100.00
54872;BME280;43914;57.680;11.982;2024-02-16T05:58:02;99878.02;;;6.87;100.00
54872;BME280;43914;57.680;11.982;2024-02-16T06:00:32;99876.77;;;6.88;100.00
54872;BME280;43914;57.680;11.982;2024-02-16T06:02:58;99874.90;;;6.89;100.00
54872;BME280;43914;57.680;11.982;2024-02-16T06:05:24;99873.08;;;6.91;100.00
54872;BME280;43914;57.680;11.982;2024-02-16T06:07:49;99876.61;;;6.91;100.00
54872;BME280;43914;57.680;11.982;2024-02-16T06:10:15;99869.45;;;6.93;100.00
54872;BME280;43914;57.680;11.982;2024-02-16T06:12:40;99868.57;;;6.96;100.00
54872;BME280;43914;57.680;11.982;2024-02-16T06:15:06;99872.59;;;6.98;100.00
54872;BME280;43914;57.680;11.982;2024-02-16T06:17:32;99876.00;;;7.01;100.00
54872;BME280;43914;57.680;11.982;2024-02-16T06:19:57;99871.73;;;7.02;100.00
54872;BME280;43914;57.680;11.982;2024-02-16T06:22:23;99867.89;;;7.05;100.00
54872;BME280;43914;57.680;11.982;2024-02-16T06:24:48;99866.52;;;7.07;100.00
54872;BME280;43914;57.680;11.982;2024-02-16T06:27:14;99870.02;;;7.09;100.00
54872;BME280;43914;57.680;11.982;2024-02-16T06:29:41;99875.55;;;7.12;100.00
54872;BME280;43914;57.680;11.982;2024-02-16T06:32:07;99879.77;;;7.14;100.00
54872;BME280;43914;57.680;11.982;2024-02-16T06:34:33;99881.26;;;7.17;100.00
54872;BME280;43914;57.680;11.982;2024-02-16T06:36:59;99878.69;;;7.20;100.00
54872;BME280;43914;57.680;11.982;2024-02-16T06:39:24;99880.77;;;7.24;100.00
54872;BME280;43914;57.680;11.982;2024-02-16T06:41:50;99880.70;;;7.28;100.00
54872;BME280;43914;57.680;11.982;2024-02-16T06:44:16;99877.90;;;7.30;100.00
54872;BME280;43914;57.680;11.982;2024-02-16T06:46:42;99872.48;;;7.35;100.00
54872;BME280;43914;57.680;11.982;2024-02-16T06:49:09;99862.66;;;7.40;100.00
54872;BME280;43914;57.680;11.982;2024-02-16T06:51:35;99860.19;;;7.46;100.00
54872;BME280;43914;57.680;11.982;2024-02-16T06:54:01;99858.17;;;7.49;100.00
54872;BME280;43914;57.680;11.982;2024-02-16T06:56:27;99861.11;;;7.53;100.00
54872;BME280;43914;57.680;11.982;2024-02-16T06:58:53;99863.48;;;7.58;100.00
54872;BME280;43914;57.680;11.982;2024-02-16T07:01:19;99861.36;;;7.61;100.00
54872;BME280;43914;57.680;11.982;2024-02-16T07:03:45;99866.48;;;7.65;100.00
54872;BME280;43914;57.680;11.982;2024-02-16T07:06:11;99868.85;;;7.67;100.00
54872;BME280;43914;57.680;11.982;2024-02-16T07:08:40;99874.81;;;7.70;100.00
54872;BME280;43914;57.680;11.982;2024-02-16T07:11:05;99876.64;;;7.72;100.00
54872;BME280;43914;57.680;11.982;2024-02-16T07:13:34;99883.27;;;7.75;100.00
54872;BME280;43914;57.680;11.982;2024-02-16T07:16:00;99883.25;;;7.81;100.00
54872;BME280;43914;57.680;11.982;2024-02-16T07:18:25;99880.70;;;7.84;100.00
54872;BME280;43914;57.680;11.982;2024-02-16T07:20:51;99881.72;;;7.88;100.00
54872;BME280;43914;57.680;11.982;2024-02-16T07:23:17;99879.09;;;7.93;100.00
54872;BME280;43914;57.680;11.982;2024-02-16T07:25:43;99874.26;;;8.01;100.00
54872;BME280;43914;57.680;11.982;2024-02-16T07:28:08;99865.94;;;8.07;100.00
54872;BME280;43914;57.680;11.982;2024-02-16T07:30:35;99866.92;;;8.13;100.00
54872;BME280;43914;57.680;11.982;2024-02-16T07:33:04;99874.58;;;8.20;100.00
54872;BME280;43914;57.680;11.982;2024-02-16T07:35:30;99882.04;;;8.25;100.00
54872;BME280;43914;57.680;11.982;2024-02-16T07:37:55;99872.11;;;8.28;100.00
54872;BME280;43914;57.680;11.982;2024-02-16T07:40:21;99875.89;;;8.31;100.00
54872;BME280;43914;57.680;11.982;2024-02-16T07:42:47;99878.24;;;8.32;100.00
54872;BME280;43914;57.680;11.982;2024-02-16T07:45:13;99870.80;;;8.35;100.00
54872;BME280;43914;57.680;11.982;2024-02-16T07:47:40;99871.11;;;8.36;100.00
54872;BME280;43914;57.680;11.982;2024-02-16T07:50:08;99869.36;;;8.37;100.00
54872;BME280;43914;57.680;11.982;2024-02-16T07:52:33;99860.42;;;8.39;100.00
54872;BME280;43914;57.680;11.982;2024-02-16T07:54:59;99856.80;;;8.40;100.00
54872;BME280;43914;57.680;11.982;2024-02-16T07:57:26;99854.01;;;8.39;100.00
54872;BME280;43914;57.680;11.982;2024-02-16T07:59:52;99850.01;;;8.38;100.00
54872;BME280;43914;57.680;11.982;2024-02-16T08:02:18;99839.86;;;8.38;100.00
54872;BME280;43914;57.680;11.982;2024-02-16T08:04:48;99851.91;;;8.37;100.00
54872;BME280;43914;57.680;11.982;2024-02-16T08:07:14;99852.84;;;8.38;100.00
54872;BME280;43914;57.680;11.982;2024-02-16T08:09:45;99837.20;;;8.39;100.00
54872;BME280;43914;57.680;11.982;2024-02-16T08:12:12;99841.48;;;8.41;100.00
54872;BME280;43914;57.680;11.982;2024-02-16T08:14:38;99844.48;;;8.43;100.00
54872;BME280;43914;57.680;11.982;2024-02-16T08:17:06;99853.31;;;8.43;100.00
54872;BME280;43914;57.680;11.982;2024-02-16T08:19:33;99845.73;;;8.44;100.00
54872;BME280;43914;57.680;11.982;2024-02-16T08:22:02;99840.71;;;8.46;100.00
54872;BME280;43914;57.680;11.982;2024-02-16T08:24:31;99841.48;;;8.47;100.00
54872;BME280;43914;57.680;11.982;2024-02-16T08:26:57;99825.12;;;8.48;100.00
54872;BME280;43914;57.680;11.982;2024-02-16T08:29:22;99821.55;;;8.49;100.00
54872;BME280;43914;57.680;11.982;2024-02-16T08:31:49;99825.58;;;8.50;100.00
54872;BME280;43914;57.680;11.982;2024-02-16T08:34:16;99834.45;;;8.49;100.00
54872;BME280;43914;57.680;11.982;2024-02-16T08:36:45;99835.70;;;8.46;100.00
54872;BME280;43914;57.680;11.982;2024-02-16T08:39:12;99840.33;;;8.43;100.00
54872;BME280;43914;57.680;11.982;2024-02-16T08:41:38;99833.50;;;8.36;100.00
54872;BME280;43914;57.680;11.982;2024-02-16T08:44:04;99836.12;;;8.38;100.00
54872;BME280;43914;57.680;11.982;2024-02-16T08:46:29;99838.41;;;8.35;100.00
54872;BME280;43914;57.680;11.982;2024-02-16T08:48:55;99838.20;;;8.34;100.00
54872;BME280;43914;57.680;11.982;2024-02-16T08:51:21;99833.72;;;8.33;100.00
54872;BME280;43914;57.680;11.982;2024-02-16T08:53:46;99823.46;;;8.32;100.00
54872;BME280;43914;57.680;11.982;2024-02-16T08:56:12;99827.59;;;8.32;100.00
54872;BME280;43914;57.680;11.982;2024-02-16T08:58:38;99827.96;;;8.33;100.00
54872;BME280;43914;57.680;11.982;2024-02-16T09:01:04;99822.83;;;8.34;100.00
54872;BME280;43914;57.680;11.982;2024-02-16T09:03:30;99821.61;;;8.35;100.00
54872;BME280;43914;57.680;11.982;2024-02-16T09:06:04;99822.63;;;8.37;100.00
54872;BME280;43914;57.680;11.982;2024-02-16T09:08:29;99815.05;;;8.36;100.00
54872;BME280;43914;57.680;11.982;2024-02-16T09:11:05;99812.01;;;8.36;100.00
54872;BME280;43914;57.680;11.982;2024-02-16T09:13:35;99812.30;;;8.37;100.00
54872;BME280;43914;57.680;11.982;2024-02-16T09:16:02;99808.45;;;8.35;100.00
54872;BME280;43914;57.680;11.982;2024-02-16T09:18:29;99812.60;;;8.33;100.00
54872;BME280;43914;57.680;11.982;2024-02-16T09:20:55;99819.46;;;8.31;100.00
54872;BME280;43914;57.680;11.982;2024-02-16T09:23:20;99813.70;;;8.30;100.00
54872;BME280;43914;57.680;11.982;2024-02-16T09:25:45;99809.86;;;8.31;100.00
54872;BME280;43914;57.680;11.982;2024-02-16T09:28:12;99799.64;;;8.30;100.00
54872;BME280;43914;57.680;11.982;2024-02-16T09:30:38;99803.15;;;8.30;100.00
54872;BME280;43914;57.680;11.982;2024-02-16T09:33:04;99805.77;;;8.30;100.00
54872;BME280;43914;57.680;11.982;2024-02-16T09:35:29;99798.33;;;8.30;100.00
54872;BME280;43914;57.680;11.982;2024-02-16T09:37:55;99797.30;;;8.30;100.00
54872;BME280;43914;57.680;11.982;2024-02-16T09:40:21;99793.10;;;8.31;100.00
54872;BME280;43914;57.680;11.982;2024-02-16T09:42:50;99787.21;;;8.31;100.00
54872;BME280;43914;57.680;11.982;2024-02-16T09:45:16;99785.82;;;8.30;100.00
54872;BME280;43914;57.680;11.982;2024-02-16T09:47:42;99780.95;;;8.31;100.00
54872;BME280;43914;57.680;11.982;2024-02-16T09:50:09;99776.75;;;8.30;100.00
54872;BME280;43914;57.680;11.982;2024-02-16T09:52:38;99775.70;;;8.29;100.00
54872;BME280;43914;57.680;11.982;2024-02-16T09:55:05;99776.91;;;8.26;100.00
54872;BME280;43914;57.680;11.982;2024-02-16T09:57:33;99775.20;;;8.24;100.00
54872;BME280;43914;57.680;11.982;2024-02-16T09:59:59;99775.34;;;8.21;100.00
54872;BME280;43914;57.680;11.982;2024-02-16T10:02:26;99774.29;;;8.18;100.00
54872;BME280;43914;57.680;11.982;2024-02-16T10:04:51;99768.25;;;8.16;100.00
54872;BME280;43914;57.680;11.982;2024-02-16T10:07:29;99776.38;;;8.12;100.00
54872;BME280;43914;57.680;11.982;2024-02-16T10:09:55;99774.65;;;8.08;100.00
54872;BME280;43914;57.680;11.982;2024-02-16T10:12:20;99774.08;;;8.04;100.00
54872;BME280;43914;57.680;11.982;2024-02-16T10:14:54;99778.68;;;8.02;100.00
54872;BME280;43914;57.680;11.982;2024-02-16T10:17:20;99776.09;;;7.98;100.00
54872;BME280;43914;57.680;11.982;2024-02-16T10:19:55;99778.81;;;7.95;100.00
54872;BME280;43914;57.680;11.982;2024-02-16T10:22:21;99779.68;;;7.92;100.00
54872;BME280;43914;57.680;11.982;2024-02-16T10:24:48;99786.54;;;7.90;100.00
54872;BME280;43914;57.680;11.982;2024-02-16T10:27:16;99778.27;;;7.86;100.00
54872;BME280;43914;57.680;11.982;2024-02-16T10:29:44;99775.35;;;7.85;100.00
54872;BME280;43914;57.680;11.982;2024-02-16T10:32:11;99778.05;;;7.84;100.00
54872;BME280;43914;57.680;11.982;2024-02-16T10:34:38;99767.67;;;7.84;100.00
54872;BME280;43914;57.680;11.982;2024-02-16T10:37:06;99763.65;;;7.85;100.00
54872;BME280;43914;57.680;11.982;2024-02-16T10:39:33;99766.34;;;7.86;100.00
54872;BME280;43914;57.680;11.982;2024-02-16T10:42:01;99759.63;;;7.86;100.00
54872;BME280;43914;57.680;11.982;2024-02-16T10:44:28;99758.27;;;7.86;100.00
54872;BME280;43914;57.680;11.982;2024-02-16T10:46:55;99754.18;;;7.89;100.00
54872;BME280;43914;57.680;11.982;2024-02-16T10:49:24;99754.27;;;7.91;100.00
54872;BME280;43914;57.680;11.982;2024-02-16T10:51:54;99766.48;;;7.93;100.00
54872;BME280;43914;57.680;11.982;2024-02-16T10:54:27;99763.98;;;7.93;100.00
54872;BME280;43914;57.680;11.982;2024-02-16T10:56:54;99762.35;;;7.92;100.00
54872;BME280;43914;57.680;11.982;2024-02-16T10:59:21;99754.33;;;7.92;100.00
54872;BME280;43914;57.680;11.982;2024-02-16T11:01:47;99755.98;;;7.92;100.00
54872;BME280;43914;57.680;11.982;2024-02-16T11:04:19;99759.81;;;7.92;100.00
54872;BME280;43914;57.680;11.982;2024-02-16T11:06:53;99762.06;;;7.92;100.00
54872;BME280;43914;57.680;11.982;2024-02-16T11:09:38;99755.02;;;7.90;100.00
54872;BME280;43914;57.680;11.982;2024-02-16T11:12:05;99750.17;;;7.87;100.00
54872;BME280;43914;57.680;11.982;2024-02-16T11:14:39;99741.48;;;7.87;100.00
54872;BME280;43914;57.680;11.982;2024-02-16T11:17:12;99744.91;;;7.88;100.00
54872;BME280;43914;57.680;11.982;2024-02-16T11:19:45;99736.42;;;7.87;100.00
54872;BME280;43914;57.680;11.982;2024-02-16T11:22:15;99742.23;;;7.88;100.00
54872;BME280;43914;57.680;11.982;2024-02-16T11:27:11;99735.15;;;7.87;100.00
54872;BME280;43914;57.680;11.982;2024-02-16T11:29:37;99732.36;;;7.88;100.00
54872;BME280;43914;57.680;11.982;2024-02-16T11:32:08;99722.77;;;7.89;100.00
54872;BME280;43914;57.680;11.982;2024-02-16T11:34:34;99723.61;;;7.90;100.00
54872;BME280;43914;57.680;11.982;2024-02-16T11:37:02;99732.73;;;7.89;100.00
54872;BME280;43914;57.680;11.982;2024-02-16T11:39:28;99723.69;;;7.89;100.00
54872;BME280;43914;57.680;11.982;2024-02-16T11:42:03;99722.03;;;7.88;100.00
54872;BME280;43914;57.680;11.982;2024-02-16T11:44:34;99717.98;;;7.86;100.00
54872;BME280;43914;57.680;11.982;2024-02-16T11:47:02;99721.92;;;7.86;100.00
54872;BME280;43914;57.680;11.982;2024-02-16T11:49:31;99721.11;;;7.86;100.00
54872;BME280;43914;57.680;11.982;2024-02-16T11:51:56;99699.73;;;7.84;100.00
54872;BME280;43914;57.680;11.982;2024-02-16T11:54:24;99695.65;;;7.82;100.00
54872;BME280;43914;57.680;11.982;2024-02-16T11:56:51;99689.92;;;7.81;100.00
54872;BME280;43914;57.680;11.982;2024-02-16T11:59:18;99694.59;;;7.80;100.00
54872;BME280;43914;57.680;11.982;2024-02-16T12:01:58;99694.05;;;7.79;100.00
54872;BME280;43914;57.680;11.982;2024-02-16T12:04:27;99699.02;;;7.78;100.00
54872;BME280;43914;57.680;11.982;2024-02-16T12:07:02;99699.42;;;7.77;100.00
54872;BME280;43914;57.680;11.982;2024-02-16T12:09:29;99685.63;;;7.76;100.00
54872;BME280;43914;57.680;11.982;2024-02-16T12:11:57;99675.33;;;7.78;100.00
54872;BME280;43914;57.680;11.982;2024-02-16T12:14:24;99671.38;;;7.79;100.00
54872;BME280;43914;57.680;11.982;2024-02-16T12:16:55;99659.41;;;7.79;100.00
54872;BME280;43914;57.680;11.982;2024-02-16T12:19:21;99658.55;;;7.79;100.00
54872;BME280;43914;57.680;11.982;2024-02-16T12:21:55;99655.41;;;7.78;100.00
54872;BME280;43914;57.680;11.982;2024-02-16T12:24:23;99650.38;;;7.79;100.00
54872;BME280;43914;57.680;11.982;2024-02-16T12:26:49;99652.60;;;7.78;100.00
54872;BME280;43914;57.680;11.982;2024-02-16T12:29:15;99657.04;;;7.77;100.00
54872;BME280;43914;57.680;11.982;2024-02-16T12:31:45;99657.80;;;7.75;100.00
54872;BME280;43914;57.680;11.982;2024-02-16T12:34:13;99659.90;;;7.74;100.00
54872;BME280;43914;57.680;11.982;2024-02-16T12:36:39;99661.83;;;7.73;100.00
54872;BME280;43914;57.680;11.982;2024-02-16T12:39:06;99631.67;;;7.70;100.00
54872;BME280;43914;57.680;11.982;2024-02-16T12:41:35;99615.66;;;7.67;100.00
54872;BME280;43914;57.680;11.982;2024-02-16T12:44:01;99637.77;;;7.66;100.00
54872;BME280;43914;57.680;11.982;2024-02-16T12:46:28;99636.86;;;7.61;100.00
54872;BME280;43914;57.680;11.982;2024-02-16T12:48:54;99638.23;;;7.58;100.00